sensor_id;sensor_type;location;lat;lon;timestamp;P1;durP1;ratioP1;P2;durP2;ratioP2
56381;SDS011;50261;51.150;4.470;2022-09-01T00:00:38;2.72;;;1.10;;
56381;SDS011;50261;51.150;4.470;2022-09-01T00:03:06;3.00;;;1.02;;
56381;SDS011;50261;51.150;4.470;2022-09-01T00:05:32;3.13;;;1.50;;
56381;SDS011;50261;51.150;4.470;2022-09-01T00:07:59;2.30;;;1.00;;
56381;SDS011;50261;51.150;4.470;2022-09-01T00:10:24;1.88;;;1.00;;
56381;SDS011;50261;51.150;4.470;2022-09-01T00:12:50;3.92;;;0.82;;
56381;SDS011;50261;51.150;4.470;2022-09-01T00:15:15;3.05;;;1.25;;
56381;SDS011;50261;51.150;4.470;2022-09-01T00:17:41;4.85;;;1.20;;
56381;SDS011;50261;51.150;4.470;2022-09-01T00:20:06;2.47;;;1.00;;
56381;SDS011;50261;51.150;4.470;2022-09-01T00:22:32;4.10;;;1.30;;
56381;SDS011;50261;51.150;4.470;2022-09-01T00:24:58;1.88;;;1.20;;
56381;SDS011;50261;51.150;4.470;2022-09-01T00:27:23;5.43;;;1.30;;
56381;SDS011;50261;51.150;4.470;2022-09-01T00:29:49;3.65;;;1.40;;
56381;SDS011;50261;51.150;4.470;2022-09-01T00:32:14;1.30;;;0.88;;
56381;SDS011;50261;51.150;4.470;2022-09-01T00:34:40;1.75;;;1.10;;
56381;SDS011;50261;51.150;4.470;2022-09-01T00:37:06;2.17;;;1.08;;
56381;SDS011;50261;51.150;4.470;2022-09-01T00:39:31;2.03;;;1.10;;
56381;SDS011;50261;51.150;4.470;2022-09-01T00:41:57;3.03;;;1.13;;
56381;SDS011;50261;51.150;4.470;2022-09-01T00:44:23;2.55;;;1.55;;
56381;SDS011;50261;51.150;4.470;2022-09-01T00:46:52;3.08;;;1.17;;
56381;SDS011;50261;51.150;4.470;2022-09-01T00:49:20;6.25;;;1.65;;
56381;SDS011;50261;51.150;4.470;2022-09-01T00:51:50;3.38;;;1.10;;
56381;SDS011;50261;51.150;4.470;2022-09-01T00:54:21;2.83;;;1.17;;
56381;SDS011;50261;51.150;4.470;2022-09-01T00:56:47;2.40;;;1.13;;
56381;SDS011;50261;51.150;4.470;2022-09-01T00:59:13;2.72;;;1.20;;
56381;SDS011;50261;51.150;4.470;2022-09-01T01:01:40;2.78;;;1.02;;
56381;SDS011;50261;51.150;4.470;2022-09-01T01:04:07;2.58;;;1.02;;
56381;SDS011;50261;51.150;4.470;2022-09-01T01:06:45;2.05;;;1.20;;
56381;SDS011;50261;51.150;4.470;2022-09-01T01:09:20;3.42;;;1.17;;
56381;SDS011;50261;51.150;4.470;2022-09-01T01:11:46;3.17;;;1.27;;
56381;SDS011;50261;51.150;4.470;2022-09-01T01:14:12;5.03;;;1.20;;
56381;SDS011;50261;51.150;4.470;2022-09-01T01:16:41;1.77;;;1.08;;
56381;SDS011;50261;51.150;4.470;2022-09-01T01:19:27;5.47;;;1.35;;
56381;SDS011;50261;51.150;4.470;2022-09-01T01:22:16;6.55;;;1.35;;
56381;SDS011;50261;51.150;4.470;2022-09-01T01:25:02;1.40;;;0.90;;
56381;SDS011;50261;51.150;4.470;2022-09-01T01:27:31;2.47;;;1.40;;
56381;SDS011;50261;51.150;4.470;2022-09-01T01:29:59;3.22;;;1.30;;
56381;SDS011;50261;51.150;4.470;2022-09-01T01:32:25;3.83;;;1.10;;
56381;SDS011;50261;51.150;4.470;2022-09-01T01:34:50;2.25;;;1.20;;
56381;SDS011;50261;51.150;4.470;2022-09-01T01:37:18;2.75;;;1.45;;
56381;SDS011;50261;51.150;4.470;2022-09-01T01:39:44;4.82;;;1.30;;
56381;SDS011;50261;51.150;4.470;2022-09-01T01:42:11;5.93;;;1.20;;
56381;SDS011;50261;51.150;4.470;2022-09-01T01:44:37;5.80;;;1.20;;
56381;SDS011;50261;51.150;4.470;2022-09-01T01:47:04;2.33;;;1.20;;
56381;SDS011;50261;51.150;4.470;2022-09-01T01:49:32;3.50;;;1.30;;
56381;SDS011;50261;51.150;4.470;2022-09-01T01:51:58;4.97;;;1.70;;
56381;SDS011;50261;51.150;4.470;2022-09-01T01:54:28;5.68;;;1.25;;
56381;SDS011;50261;51.150;4.470;2022-09-01T01:56:55;6.55;;;1.55;;
56381;SDS011;50261;51.150;4.470;2022-09-01T01:59:22;4.35;;;1.60;;
56381;SDS011;50261;51.150;4.470;2022-09-01T02:01:49;4.63;;;1.35;;
56381;SDS011;50261;51.150;4.470;2022-09-01T02:04:15;2.80;;;1.48;;
56381;SDS011;50261;51.150;4.470;2022-09-01T02:06:41;4.47;;;1.00;;
56381;SDS011;50261;51.150;4.470;2022-09-01T02:09:11;5.25;;;1.27;;
56381;SDS011;50261;51.150;4.470;2022-09-01T02:11:37;3.80;;;1.20;;
56381;SDS011;50261;51.150;4.470;2022-09-01T02:14:04;4.38;;;1.42;;
56381;SDS011;50261;51.150;4.470;2022-09-01T02:16:31;5.22;;;1.25;;
56381;SDS011;50261;51.150;4.470;2022-09-01T02:19:01;2.13;;;1.27;;
56381;SDS011;50261;51.150;4.470;2022-09-01T02:21:27;2.85;;;1.10;;
56381;SDS011;50261;51.150;4.470;2022-09-01T02:23:54;2.38;;;1.58;;
56381;SDS011;50261;51.150;4.470;2022-09-01T02:26:58;1.70;;;1.10;;
56381;SDS011;50261;51.150;4.470;2022-09-01T02:29:18;3.03;;;1.50;;
56381;SDS011;50261;51.150;4.470;2022-09-01T02:31:49;3.42;;;1.40;;
56381;SDS011;50261;51.150;4.470;2022-09-01T02:34:16;5.85;;;1.25;;
56381;SDS011;50261;51.150;4.470;2022-09-01T02:36:43;4.63;;;1.10;;
56381;SDS011;50261;51.150;4.470;2022-09-01T02:39:13;3.33;;;1.52;;
56381;SDS011;50261;51.150;4.470;2022-09-01T02:41:39;1.90;;;1.13;;
56381;SDS011;50261;51.150;4.470;2022-09-01T02:44:05;2.95;;;1.10;;
56381;SDS011;50261;51.150;4.470;2022-09-01T02:46:40;3.30;;;1.60;;
56381;SDS011;50261;51.150;4.470;2022-09-01T02:49:13;2.40;;;1.13;;
56381;SDS011;50261;51.150;4.470;2022-09-01T02:51:45;3.85;;;1.50;;
56381;SDS011;50261;51.150;4.470;2022-09-01T02:54:11;3.20;;;1.30;;
56381;SDS011;50261;51.150;4.470;2022-09-01T02:56:42;3.58;;;1.85;;
56381;SDS011;50261;51.150;4.470;2022-09-01T02:59:09;4.40;;;1.65;;
56381;SDS011;50261;51.150;4.470;2022-09-01T03:01:37;3.88;;;1.65;;
56381;SDS011;50261;51.150;4.470;2022-09-01T03:04:04;6.65;;;1.25;;
56381;SDS011;50261;51.150;4.470;2022-09-01T03:06:30;3.30;;;1.33;;
56381;SDS011;50261;51.150;4.470;2022-09-01T03:08:58;7.20;;;1.98;;
56381;SDS011;50261;51.150;4.470;2022-09-01T03:11:24;6.93;;;1.50;;
56381;SDS011;50261;51.150;4.470;2022-09-01T03:13:50;3.03;;;1.45;;
56381;SDS011;50261;51.150;4.470;2022-09-01T03:16:16;3.42;;;1.70;;
56381;SDS011;50261;51.150;4.470;2022-09-01T03:18:43;3.03;;;1.60;;
56381;SDS011;50261;51.150;4.470;2022-09-01T03:21:08;3.78;;;1.65;;
56381;SDS011;50261;51.150;4.470;2022-09-01T03:23:34;3.92;;;1.52;;
56381;SDS011;50261;51.150;4.470;2022-09-01T03:26:00;3.72;;;1.77;;
56381;SDS011;50261;51.150;4.470;2022-09-01T03:28:26;2.85;;;1.38;;
56381;SDS011;50261;51.150;4.470;2022-09-01T03:30:52;3.67;;;1.63;;
56381;SDS011;50261;51.150;4.470;2022-09-01T03:33:19;3.22;;;1.40;;
56381;SDS011;50261;51.150;4.470;2022-09-01T03:35:45;4.15;;;1.73;;
56381;SDS011;50261;51.150;4.470;2022-09-01T03:38:11;4.28;;;1.50;;
56381;SDS011;50261;51.150;4.470;2022-09-01T03:40:38;7.93;;;1.90;;
56381;SDS011;50261;51.150;4.470;2022-09-01T03:43:04;4.70;;;1.65;;
56381;SDS011;50261;51.150;4.470;2022-09-01T03:45:30;3.58;;;1.50;;
56381;SDS011;50261;51.150;4.470;2022-09-01T03:48:00;7.15;;;1.42;;
56381;SDS011;50261;51.150;4.470;2022-09-01T03:50:28;2.58;;;1.40;;
56381;SDS011;50261;51.150;4.470;2022-09-01T03:52:56;3.22;;;1.42;;
56381;SDS011;50261;51.150;4.470;2022-09-01T03:55:24;4.88;;;1.80;;
56381;SDS011;50261;51.150;4.470;2022-09-01T03:57:51;3.45;;;1.48;;
56381;SDS011;50261;51.150;4.470;2022-09-01T04:00:18;2.88;;;1.67;;
56381;SDS011;50261;51.150;4.470;2022-09-01T04:02:46;6.25;;;1.80;;
56381;SDS011;50261;51.150;4.470;2022-09-01T04:05:14;4.25;;;1.80;;
56381;SDS011;50261;51.150;4.470;2022-09-01T04:07:39;3.25;;;2.05;;
56381;SDS011;50261;51.150;4.470;2022-09-01T04:10:05;3.15;;;1.63;;
56381;SDS011;50261;51.150;4.470;2022-09-01T04:12:31;4.13;;;1.65;;
56381;SDS011;50261;51.150;4.470;2022-09-01T04:14:58;4.25;;;1.98;;
56381;SDS011;50261;51.150;4.470;2022-09-01T04:17:24;3.67;;;2.13;;
56381;SDS011;50261;51.150;4.470;2022-09-01T04:20:08;7.78;;;2.38;;
56381;SDS011;50261;51.150;4.470;2022-09-01T04:22:34;5.22;;;2.25;;
56381;SDS011;50261;51.150;4.470;2022-09-01T04:25:03;8.52;;;2.45;;
56381;SDS011;50261;51.150;4.470;2022-09-01T04:27:29;5.90;;;2.30;;
56381;SDS011;50261;51.150;4.470;2022-09-01T04:29:55;5.28;;;2.17;;
56381;SDS011;50261;51.150;4.470;2022-09-01T04:32:21;6.30;;;2.38;;
56381;SDS011;50261;51.150;4.470;2022-09-01T04:34:52;4.65;;;2.22;;
56381;SDS011;50261;51.150;4.470;2022-09-01T04:37:19;4.85;;;2.78;;
56381;SDS011;50261;51.150;4.470;2022-09-01T04:39:52;8.45;;;2.70;;
56381;SDS011;50261;51.150;4.470;2022-09-01T04:42:19;9.48;;;2.60;;
56381;SDS011;50261;51.150;4.470;2022-09-01T04:44:52;8.10;;;3.03;;
56381;SDS011;50261;51.150;4.470;2022-09-01T04:47:22;6.55;;;3.05;;
56381;SDS011;50261;51.150;4.470;2022-09-01T04:49:56;3.60;;;2.80;;
56381;SDS011;50261;51.150;4.470;2022-09-01T04:52:23;8.52;;;3.50;;
56381;SDS011;50261;51.150;4.470;2022-09-01T04:54:49;7.93;;;2.92;;
56381;SDS011;50261;51.150;4.470;2022-09-01T04:57:15;11.90;;;3.72;;
56381;SDS011;50261;51.150;4.470;2022-09-01T04:59:41;4.05;;;2.80;;
56381;SDS011;50261;51.150;4.470;2022-09-01T05:02:08;9.18;;;3.50;;
56381;SDS011;50261;51.150;4.470;2022-09-01T05:04:34;9.65;;;3.70;;
56381;SDS011;50261;51.150;4.470;2022-09-01T05:07:01;6.05;;;3.42;;
56381;SDS011;50261;51.150;4.470;2022-09-01T05:09:35;8.45;;;3.45;;
56381;SDS011;50261;51.150;4.470;2022-09-01T05:12:18;6.40;;;3.05;;
56381;SDS011;50261;51.150;4.470;2022-09-01T05:14:48;6.28;;;3.55;;
56381;SDS011;50261;51.150;4.470;2022-09-01T05:17:17;6.32;;;3.58;;
56381;SDS011;50261;51.150;4.470;2022-09-01T05:19:44;4.63;;;3.42;;
56381;SDS011;50261;51.150;4.470;2022-09-01T05:22:13;7.85;;;3.65;;
56381;SDS011;50261;51.150;4.470;2022-09-01T05:24:44;11.02;;;3.78;;
56381;SDS011;50261;51.150;4.470;2022-09-01T05:27:10;10.20;;;4.05;;
56381;SDS011;50261;51.150;4.470;2022-09-01T05:29:37;7.88;;;3.85;;
56381;SDS011;50261;51.150;4.470;2022-09-01T05:32:05;9.63;;;4.10;;
56381;SDS011;50261;51.150;4.470;2022-09-01T05:34:38;13.13;;;4.80;;
56381;SDS011;50261;51.150;4.470;2022-09-01T05:37:05;9.02;;;4.05;;
56381;SDS011;50261;51.150;4.470;2022-09-01T05:39:31;11.15;;;4.55;;
56381;SDS011;50261;51.150;4.470;2022-09-01T05:41:58;9.48;;;4.60;;
56381;SDS011;50261;51.150;4.470;2022-09-01T05:44:24;12.68;;;4.75;;
56381;SDS011;50261;51.150;4.470;2022-09-01T05:46:52;9.15;;;4.55;;
56381;SDS011;50261;51.150;4.470;2022-09-01T05:49:20;8.20;;;4.78;;
56381;SDS011;50261;51.150;4.470;2022-09-01T05:51:48;9.98;;;4.88;;
56381;SDS011;50261;51.150;4.470;2022-09-01T05:54:18;7.70;;;5.00;;
56381;SDS011;50261;51.150;4.470;2022-09-01T05:56:45;11.68;;;5.45;;
56381;SDS011;50261;51.150;4.470;2022-09-01T05:59:18;11.68;;;5.10;;
56381;SDS011;50261;51.150;4.470;2022-09-01T06:01:45;11.63;;;5.28;;
56381;SDS011;50261;51.150;4.470;2022-09-01T06:04:12;9.45;;;5.35;;
56381;SDS011;50261;51.150;4.470;2022-09-01T06:06:39;9.70;;;5.20;;
56381;SDS011;50261;51.150;4.470;2022-09-01T06:09:06;11.00;;;6.28;;
56381;SDS011;50261;51.150;4.470;2022-09-01T06:11:32;10.63;;;5.65;;
56381;SDS011;50261;51.150;4.470;2022-09-01T06:13:58;10.23;;;5.93;;
56381;SDS011;50261;51.150;4.470;2022-09-01T06:16:25;11.70;;;5.78;;
56381;SDS011;50261;51.150;4.470;2022-09-01T06:18:52;9.30;;;5.70;;
56381;SDS011;50261;51.150;4.470;2022-09-01T06:21:19;10.75;;;6.45;;
56381;SDS011;50261;51.150;4.470;2022-09-01T06:23:46;14.80;;;7.20;;
56381;SDS011;50261;51.150;4.470;2022-09-01T06:26:37;13.50;;;7.25;;
56381;SDS011;50261;51.150;4.470;2022-09-01T06:29:04;14.57;;;7.00;;
56381;SDS011;50261;51.150;4.470;2022-09-01T06:31:32;11.75;;;6.82;;
56381;SDS011;50261;51.150;4.470;2022-09-01T06:34:05;14.43;;;7.22;;
56381;SDS011;50261;51.150;4.470;2022-09-01T06:36:31;13.77;;;6.70;;
56381;SDS011;50261;51.150;4.470;2022-09-01T06:38:57;16.80;;;6.85;;
56381;SDS011;50261;51.150;4.470;2022-09-01T06:41:24;20.13;;;8.05;;
56381;SDS011;50261;51.150;4.470;2022-09-01T06:43:50;14.07;;;7.93;;
56381;SDS011;50261;51.150;4.470;2022-09-01T06:46:18;15.70;;;7.63;;
56381;SDS011;50261;51.150;4.470;2022-09-01T06:48:44;15.73;;;7.22;;
56381;SDS011;50261;51.150;4.470;2022-09-01T06:51:14;15.60;;;8.13;;
56381;SDS011;50261;51.150;4.470;2022-09-01T06:53:40;18.27;;;8.48;;
56381;SDS011;50261;51.150;4.470;2022-09-01T06:56:09;15.02;;;7.63;;
56381;SDS011;50261;51.150;4.470;2022-09-01T06:58:40;13.38;;;7.78;;
56381;SDS011;50261;51.150;4.470;2022-09-01T07:01:09;13.27;;;8.13;;
56381;SDS011;50261;51.150;4.470;2022-09-01T07:03:42;14.73;;;8.00;;
56381;SDS011;50261;51.150;4.470;2022-09-01T07:06:25;16.17;;;8.02;;
56381;SDS011;50261;51.150;4.470;2022-09-01T07:09:12;22.65;;;8.32;;
56381;SDS011;50261;51.150;4.470;2022-09-01T07:11:40;18.30;;;8.52;;
56381;SDS011;50261;51.150;4.470;2022-09-01T07:14:06;17.33;;;7.78;;
56381;SDS011;50261;51.150;4.470;2022-09-01T07:16:33;16.10;;;8.63;;
56381;SDS011;50261;51.150;4.470;2022-09-01T07:19:02;13.13;;;8.43;;
56381;SDS011;50261;51.150;4.470;2022-09-01T07:21:30;19.23;;;8.50;;
56381;SDS011;50261;51.150;4.470;2022-09-01T07:23:58;16.88;;;8.55;;
56381;SDS011;50261;51.150;4.470;2022-09-01T07:26:26;14.43;;;8.40;;
56381;SDS011;50261;51.150;4.470;2022-09-01T07:28:54;14.45;;;8.52;;
56381;SDS011;50261;51.150;4.470;2022-09-01T07:31:54;12.73;;;8.82;;
56381;SDS011;50261;51.150;4.470;2022-09-01T07:34:13;13.90;;;8.15;;
56381;SDS011;50261;51.150;4.470;2022-09-01T07:36:41;13.93;;;8.88;;
56381;SDS011;50261;51.150;4.470;2022-09-01T07:39:08;16.02;;;8.23;;
56381;SDS011;50261;51.150;4.470;2022-09-01T07:41:34;18.73;;;9.60;;
56381;SDS011;50261;51.150;4.470;2022-09-01T07:44:38;14.50;;;8.35;;
56381;SDS011;50261;51.150;4.470;2022-09-01T07:47:42;16.45;;;8.52;;
56381;SDS011;50261;51.150;4.470;2022-09-01T07:50:10;15.48;;;8.73;;
56381;SDS011;50261;51.150;4.470;2022-09-01T07:52:37;17.58;;;8.82;;
56381;SDS011;50261;51.150;4.470;2022-09-01T07:55:10;20.00;;;9.43;;
56381;SDS011;50261;51.150;4.470;2022-09-01T07:57:37;18.23;;;9.60;;
56381;SDS011;50261;51.150;4.470;2022-09-01T08:00:04;13.07;;;8.35;;
56381;SDS011;50261;51.150;4.470;2022-09-01T08:02:42;15.88;;;9.00;;
56381;SDS011;50261;51.150;4.470;2022-09-01T08:05:12;19.00;;;9.57;;
56381;SDS011;50261;51.150;4.470;2022-09-01T08:07:39;20.63;;;9.82;;
56381;SDS011;50261;51.150;4.470;2022-09-01T08:10:05;16.70;;;9.43;;
56381;SDS011;50261;51.150;4.470;2022-09-01T08:12:35;17.02;;;8.52;;
56381;SDS011;50261;51.150;4.470;2022-09-01T08:15:02;18.60;;;9.80;;
56381;SDS011;50261;51.150;4.470;2022-09-01T08:17:28;17.90;;;9.25;;
56381;SDS011;50261;51.150;4.470;2022-09-01T08:19:56;15.98;;;9.18;;
56381;SDS011;50261;51.150;4.470;2022-09-01T08:22:40;14.35;;;8.75;;
56381;SDS011;50261;51.150;4.470;2022-09-01T08:25:15;17.60;;;9.40;;
56381;SDS011;50261;51.150;4.470;2022-09-01T08:27:41;13.95;;;9.55;;
56381;SDS011;50261;51.150;4.470;2022-09-01T08:30:09;15.52;;;8.73;;
56381;SDS011;50261;51.150;4.470;2022-09-01T08:32:36;13.85;;;9.05;;
56381;SDS011;50261;51.150;4.470;2022-09-01T08:35:02;16.73;;;8.90;;
56381;SDS011;50261;51.150;4.470;2022-09-01T08:37:29;14.32;;;8.60;;
56381;SDS011;50261;51.150;4.470;2022-09-01T08:39:55;21.17;;;9.45;;
56381;SDS011;50261;51.150;4.470;2022-09-01T08:47:15;12.38;;;8.13;;
56381;SDS011;50261;51.150;4.470;2022-09-01T08:49:42;12.07;;;7.43;;
56381;SDS011;50261;51.150;4.470;2022-09-01T08:52:56;16.45;;;7.68;;
56381;SDS011;50261;51.150;4.470;2022-09-01T08:55:25;14.80;;;6.80;;
56381;SDS011;50261;51.150;4.470;2022-09-01T08:57:55;12.57;;;7.05;;
56381;SDS011;50261;51.150;4.470;2022-09-01T09:00:25;11.82;;;6.95;;
56381;SDS011;50261;51.150;4.470;2022-09-01T09:10:57;13.82;;;6.50;;
56381;SDS011;50261;51.150;4.470;2022-09-01T09:13:24;10.60;;;6.50;;
56381;SDS011;50261;51.150;4.470;2022-09-01T09:16:01;14.45;;;5.85;;
56381;SDS011;50261;51.150;4.470;2022-09-01T09:18:36;11.80;;;5.78;;
56381;SDS011;50261;51.150;4.470;2022-09-01T09:21:26;13.77;;;4.70;;
56381;SDS011;50261;51.150;4.470;2022-09-01T09:23:53;7.53;;;4.65;;
56381;SDS011;50261;51.150;4.470;2022-09-01T09:26:21;7.72;;;4.28;;
56381;SDS011;50261;51.150;4.470;2022-09-01T09:28:47;4.85;;;3.67;;
56381;SDS011;50261;51.150;4.470;2022-09-01T09:33:55;5.63;;;2.83;;
56381;SDS011;50261;51.150;4.470;2022-09-01T09:36:24;7.30;;;3.10;;
56381;SDS011;50261;51.150;4.470;2022-09-01T09:39:07;8.40;;;2.92;;
56381;SDS011;50261;51.150;4.470;2022-09-01T09:41:33;7.60;;;2.80;;
56381;SDS011;50261;51.150;4.470;2022-09-01T09:44:14;5.00;;;2.40;;
56381;SDS011;50261;51.150;4.470;2022-09-01T09:46:41;7.72;;;2.50;;
56381;SDS011;50261;51.150;4.470;2022-09-01T09:49:09;3.88;;;2.10;;
56381;SDS011;50261;51.150;4.470;2022-09-01T09:51:35;2.90;;;1.92;;
56381;SDS011;50261;51.150;4.470;2022-09-01T09:54:11;6.03;;;1.85;;
56381;SDS011;50261;51.150;4.470;2022-09-01T09:56:37;4.72;;;1.77;;
56381;SDS011;50261;51.150;4.470;2022-09-01T09:59:16;5.70;;;1.75;;
56381;SDS011;50261;51.150;4.470;2022-09-01T10:01:42;4.15;;;1.80;;
56381;SDS011;50261;51.150;4.470;2022-09-01T10:04:08;9.23;;;2.13;;
56381;SDS011;50261;51.150;4.470;2022-09-01T10:06:35;5.00;;;2.22;;
56381;SDS011;50261;51.150;4.470;2022-09-01T10:09:03;3.50;;;1.90;;
56381;SDS011;50261;51.150;4.470;2022-09-01T10:11:32;9.70;;;2.30;;
56381;SDS011;50261;51.150;4.470;2022-09-01T10:14:01;6.72;;;2.63;;
56381;SDS011;50261;51.150;4.470;2022-09-01T10:16:30;2.35;;;1.92;;
56381;SDS011;50261;51.150;4.470;2022-09-01T10:18:59;4.38;;;2.63;;
56381;SDS011;50261;51.150;4.470;2022-09-01T10:23:51;3.92;;;2.53;;
56381;SDS011;50261;51.150;4.470;2022-09-01T10:26:34;3.08;;;2.20;;
56381;SDS011;50261;51.150;4.470;2022-09-01T10:29:06;2.38;;;1.73;;
56381;SDS011;50261;51.150;4.470;2022-09-01T10:31:32;2.88;;;1.42;;
56381;SDS011;50261;51.150;4.470;2022-09-01T10:34:00;5.95;;;1.77;;
56381;SDS011;50261;51.150;4.470;2022-09-01T10:36:26;5.07;;;1.50;;
56381;SDS011;50261;51.150;4.470;2022-09-01T10:38:52;3.05;;;1.50;;
56381;SDS011;50261;51.150;4.470;2022-09-01T10:44:09;5.00;;;1.50;;
56381;SDS011;50261;51.150;4.470;2022-09-01T10:49:01;5.53;;;1.65;;
56381;SDS011;50261;51.150;4.470;2022-09-01T10:53:53;2.78;;;1.13;;
56381;SDS011;50261;51.150;4.470;2022-09-01T11:06:56;3.58;;;1.45;;
56381;SDS011;50261;51.150;4.470;2022-09-01T11:09:30;2.35;;;0.93;;
56381;SDS011;50261;51.150;4.470;2022-09-01T11:12:12;3.13;;;1.10;;
56381;SDS011;50261;51.150;4.470;2022-09-01T11:14:48;3.20;;;0.93;;
56381;SDS011;50261;51.150;4.470;2022-09-01T11:17:16;3.22;;;1.15;;
56381;SDS011;50261;51.150;4.470;2022-09-01T11:25:08;2.63;;;1.30;;
56381;SDS011;50261;51.150;4.470;2022-09-01T11:30:16;3.05;;;1.40;;
56381;SDS011;50261;51.150;4.470;2022-09-01T11:32:42;3.05;;;0.93;;
56381;SDS011;50261;51.150;4.470;2022-09-01T11:35:15;5.32;;;1.38;;
56381;SDS011;50261;51.150;4.470;2022-09-01T11:37:42;3.17;;;1.42;;
56381;SDS011;50261;51.150;4.470;2022-09-01T11:40:11;4.78;;;1.23;;
56381;SDS011;50261;51.150;4.470;2022-09-01T11:42:44;6.28;;;1.48;;
56381;SDS011;50261;51.150;4.470;2022-09-01T11:45:19;3.83;;;1.30;;
56381;SDS011;50261;51.150;4.470;2022-09-01T11:47:46;3.72;;;1.52;;
56381;SDS011;50261;51.150;4.470;2022-09-01T11:50:21;1.95;;;1.23;;
56381;SDS011;50261;51.150;4.470;2022-09-01T11:52:57;3.28;;;1.30;;
56381;SDS011;50261;51.150;4.470;2022-09-01T11:55:36;4.30;;;1.50;;
56381;SDS011;50261;51.150;4.470;2022-09-01T11:58:02;8.20;;;1.73;;
56381;SDS011;50261;51.150;4.470;2022-09-01T12:00:36;6.25;;;1.73;;
56381;SDS011;50261;51.150;4.470;2022-09-01T12:03:05;4.47;;;1.48;;
56381;SDS011;50261;51.150;4.470;2022-09-01T12:05:43;5.43;;;1.70;;
56381;SDS011;50261;51.150;4.470;2022-09-01T12:08:11;3.05;;;1.55;;
56381;SDS011;50261;51.150;4.470;2022-09-01T12:10:41;5.95;;;1.60;;
56381;SDS011;50261;51.150;4.470;2022-09-01T12:13:19;1.95;;;1.40;;
56381;SDS011;50261;51.150;4.470;2022-09-01T12:15:51;4.35;;;1.60;;
56381;SDS011;50261;51.150;4.470;2022-09-01T12:18:22;2.38;;;1.60;;
56381;SDS011;50261;51.150;4.470;2022-09-01T12:20:48;5.05;;;1.58;;
56381;SDS011;50261;51.150;4.470;2022-09-01T12:23:36;4.25;;;1.88;;
56381;SDS011;50261;51.150;4.470;2022-09-01T12:26:01;8.32;;;1.70;;
56381;SDS011;50261;51.150;4.470;2022-09-01T12:28:30;2.25;;;1.60;;
56381;SDS011;50261;51.150;4.470;2022-09-01T12:30:58;3.95;;;1.65;;
56381;SDS011;50261;51.150;4.470;2022-09-01T12:33:24;5.95;;;1.80;;
56381;SDS011;50261;51.150;4.470;2022-09-01T12:35:50;3.05;;;1.33;;
56381;SDS011;50261;51.150;4.470;2022-09-01T12:40:48;3.20;;;1.70;;
56381;SDS011;50261;51.150;4.470;2022-09-01T12:43:27;2.97;;;1.63;;
56381;SDS011;50261;51.150;4.470;2022-09-01T12:45:53;6.05;;;1.95;;
56381;SDS011;50261;51.150;4.470;2022-09-01T12:48:23;4.00;;;1.55;;
56381;SDS011;50261;51.150;4.470;2022-09-01T12:50:48;2.25;;;1.50;;
56381;SDS011;50261;51.150;4.470;2022-09-01T12:53:17;2.78;;;1.77;;
56381;SDS011;50261;51.150;4.470;2022-09-01T12:55:53;2.35;;;1.50;;
56381;SDS011;50261;51.150;4.470;2022-09-01T12:58:19;4.18;;;1.90;;
56381;SDS011;50261;51.150;4.470;2022-09-01T13:01:05;2.55;;;1.50;;
56381;SDS011;50261;51.150;4.470;2022-09-01T13:03:32;4.72;;;1.88;;
56381;SDS011;50261;51.150;4.470;2022-09-01T13:05:59;6.13;;;2.13;;
56381;SDS011;50261;51.150;4.470;2022-09-01T13:08:26;3.22;;;1.75;;
56381;SDS011;50261;51.150;4.470;2022-09-01T13:11:03;2.03;;;1.40;;
56381;SDS011;50261;51.150;4.470;2022-09-01T13:13:29;4.82;;;1.60;;
56381;SDS011;50261;51.150;4.470;2022-09-01T13:15:55;3.63;;;1.50;;
56381;SDS011;50261;51.150;4.470;2022-09-01T13:18:24;2.20;;;1.67;;
56381;SDS011;50261;51.150;4.470;2022-09-01T13:20:50;3.50;;;1.73;;
56381;SDS011;50261;51.150;4.470;2022-09-01T13:23:17;2.05;;;1.73;;
56381;SDS011;50261;51.150;4.470;2022-09-01T13:25:43;3.53;;;2.05;;
56381;SDS011;50261;51.150;4.470;2022-09-01T13:28:09;3.00;;;1.73;;
56381;SDS011;50261;51.150;4.470;2022-09-01T13:30:35;3.85;;;1.70;;
56381;SDS011;50261;51.150;4.470;2022-09-01T13:33:01;3.10;;;1.50;;
56381;SDS011;50261;51.150;4.470;2022-09-01T13:35:26;3.05;;;1.67;;
56381;SDS011;50261;51.150;4.470;2022-09-01T13:37:52;2.10;;;1.50;;
56381;SDS011;50261;51.150;4.470;2022-09-01T13:40:18;3.10;;;1.42;;
56381;SDS011;50261;51.150;4.470;2022-09-01T13:42:44;4.47;;;1.55;;
56381;SDS011;50261;51.150;4.470;2022-09-01T13:45:11;4.35;;;1.38;;
56381;SDS011;50261;51.150;4.470;2022-09-01T13:47:42;2.77;;;1.30;;
56381;SDS011;50261;51.150;4.470;2022-09-01T13:50:09;5.10;;;1.77;;
56381;SDS011;50261;51.150;4.470;2022-09-01T13:52:35;2.05;;;1.42;;
56381;SDS011;50261;51.150;4.470;2022-09-01T13:55:01;2.92;;;1.60;;
56381;SDS011;50261;51.150;4.470;2022-09-01T13:57:26;4.80;;;1.50;;
56381;SDS011;50261;51.150;4.470;2022-09-01T13:59:52;2.10;;;1.33;;
56381;SDS011;50261;51.150;4.470;2022-09-01T14:02:18;2.50;;;1.55;;
56381;SDS011;50261;51.150;4.470;2022-09-01T14:04:44;3.63;;;1.40;;
56381;SDS011;50261;51.150;4.470;2022-09-01T14:07:10;2.87;;;1.37;;
56381;SDS011;50261;51.150;4.470;2022-09-01T14:09:35;3.42;;;1.30;;
56381;SDS011;50261;51.150;4.470;2022-09-01T14:12:01;2.75;;;1.30;;
56381;SDS011;50261;51.150;4.470;2022-09-01T14:14:26;3.53;;;1.42;;
56381;SDS011;50261;51.150;4.470;2022-09-01T14:16:52;4.35;;;1.40;;
56381;SDS011;50261;51.150;4.470;2022-09-01T14:19:18;2.15;;;1.30;;
56381;SDS011;50261;51.150;4.470;2022-09-01T14:21:43;1.77;;;1.35;;
56381;SDS011;50261;51.150;4.470;2022-09-01T14:24:09;2.22;;;1.15;;
56381;SDS011;50261;51.150;4.470;2022-09-01T14:26:34;4.43;;;1.63;;
56381;SDS011;50261;51.150;4.470;2022-09-01T14:29:00;6.57;;;1.30;;
56381;SDS011;50261;51.150;4.470;2022-09-01T14:31:26;2.95;;;1.42;;
56381;SDS011;50261;51.150;4.470;2022-09-01T14:33:53;1.88;;;0.95;;
56381;SDS011;50261;51.150;4.470;2022-09-01T14:36:23;3.70;;;1.25;;
56381;SDS011;50261;51.150;4.470;2022-09-01T14:38:49;4.10;;;1.23;;
56381;SDS011;50261;51.150;4.470;2022-09-01T14:41:15;3.15;;;1.10;;
56381;SDS011;50261;51.150;4.470;2022-09-01T14:43:43;4.95;;;1.38;;
56381;SDS011;50261;51.150;4.470;2022-09-01T14:46:08;2.30;;;1.30;;
56381;SDS011;50261;51.150;4.470;2022-09-01T14:48:35;1.90;;;1.17;;
56381;SDS011;50261;51.150;4.470;2022-09-01T14:51:01;5.03;;;1.23;;
56381;SDS011;50261;51.150;4.470;2022-09-01T14:53:30;2.67;;;1.13;;
56381;SDS011;50261;51.150;4.470;2022-09-01T14:55:56;2.55;;;1.08;;
56381;SDS011;50261;51.150;4.470;2022-09-01T14:58:23;4.22;;;1.40;;
56381;SDS011;50261;51.150;4.470;2022-09-01T15:00:49;3.47;;;1.13;;
56381;SDS011;50261;51.150;4.470;2022-09-01T15:03:14;5.20;;;1.27;;
56381;SDS011;50261;51.150;4.470;2022-09-01T15:05:40;4.10;;;1.10;;
56381;SDS011;50261;51.150;4.470;2022-09-01T15:08:06;3.22;;;1.02;;
56381;SDS011;50261;51.150;4.470;2022-09-01T15:10:35;3.15;;;1.10;;
56381;SDS011;50261;51.150;4.470;2022-09-01T15:13:01;5.88;;;1.30;;
56381;SDS011;50261;51.150;4.470;2022-09-01T15:15:27;4.00;;;1.15;;
56381;SDS011;50261;51.150;4.470;2022-09-01T15:17:53;2.33;;;1.38;;
56381;SDS011;50261;51.150;4.470;2022-09-01T15:20:18;2.03;;;1.45;;
56381;SDS011;50261;51.150;4.470;2022-09-01T15:23:02;3.50;;;1.30;;
56381;SDS011;50261;51.150;4.470;2022-09-01T15:25:28;4.35;;;1.58;;
56381;SDS011;50261;51.150;4.470;2022-09-01T15:27:57;4.63;;;1.20;;
56381;SDS011;50261;51.150;4.470;2022-09-01T15:30:25;4.63;;;1.48;;
56381;SDS011;50261;51.150;4.470;2022-09-01T15:32:52;3.20;;;1.23;;
56381;SDS011;50261;51.150;4.470;2022-09-01T15:35:19;7.03;;;1.30;;
56381;SDS011;50261;51.150;4.470;2022-09-01T15:37:45;3.20;;;1.15;;
56381;SDS011;50261;51.150;4.470;2022-09-01T15:40:14;3.33;;;1.10;;
56381;SDS011;50261;51.150;4.470;2022-09-01T15:42:40;3.13;;;1.35;;